Auch, France

1:42 PM CET on December 28, 2014 (GMT +0100)
IMIDIPYR17 | Change Station
CLOSE
Current Station
Personal Weather Station
Location: Mirande, MIDI-PYReNeES
Elevation: 709 ft
Nearby Weather Stations

Elev 709 ft 43.52 °N, 0.39 °E | Updated 16 minutes ago

Overcast
Overcast
42.6 °F
Feels Like 38 °F
N
8.0
Wind Variable Wind from West
Gusts 8.0 mph

Today
High -- | Low -- °F
--% Chance of Precip.
Yesterday
High -- | Low -- °F
Precip. -- in
8:30 AM 5:27 PM
Waxing Crescent, 47% visible
Pressure 30.09 in
Visibility 6.2 miles
Clouds Scattered Clouds 2800 ft
Mostly Cloudy 3300 ft
Overcast 4000 ft
Windchill 38 °F
Dew Point 36 °F
Humidity 77%
Rainfall 0.15 in
Snow Depth Not available.
UV 6.3 out of 12
Pollen Not available.
Air Quality Not available.
Flu Activity Not available.
METAR LFBA 281230Z AUTO 33012KT 9999 SCT028 BKN033 OVC040 04/M01 Q1019

More Conditions Fewer Conditions

Pressure 30.09 in
Visibility 6.2 miles
Clouds Scattered Clouds 2800 ft
Mostly Cloudy 3300 ft
Overcast 4000 ft
Windchill 38 °F
Dew Point 36 °F
Humidity 77%
Rainfall 0.15 in
Snow Depth Not available.
UV 6.3 out of 12
Pollen Not available.
Air Quality Not available.
Flu Activity Not available.
METAR LFBA 281230Z AUTO 33012KT 9999 SCT028 BKN033 OVC040 04/M01 Q1019

More Conditions Fewer Conditions

10-Day Weather Forecast

Almanac

Astronomy

Dec. 28, 2014 Rise Set
Actual Time
Civil Twilight
Nautical Twilight
Astronomical Twilight
Moon
Length of Visible Light
Length of Day
Tomorrow will be .
, % of the Moon is Illuminated

Today's Extremes

Country Highs Country Lows

Community

WunderPhotos

Upload Photos

1,781,249 photos uploaded!

WunderBlogs® & News

Nearby

Air Quality

  Air Quality AQ Index Pollutant
Not available.

Snow Depth

Station Depth Elevation

Earthquake Activity

City Distance Mag. Time & Date
Minimum magnitude displayed is 2.5.

Coastal Water Temperatures

Place Temperature

Nearby Weather Stations